Terminal Aerodrome Forecast
Issued by NWS

Home | Current Version | Previous Version | Text Only | Print | Product List | Glossary Off
Versions: 1 2 3 4 5 6 7 8 9 10 11 12 13 14 15 16 17 18

000
FTUS43 KICT 302323
TAFCNU
TAF
KCNU 302323Z 3100/3124 12006KT P6SM SKC
     FM310800 13005KT P6SM VCTS BKN070CB OVC100
     FM311500 14009KT P6SM SCT150
     FM311800 16011KT P6SM FEW040=

USA.gov is the U.S. government's official web portal to all federal, state and local government web resources and services.